createdAt,value
2022-10-05T00:00:23.382Z,99591.16
2022-10-05T00:06:30.090Z,99602.13
2022-10-05T00:12:35.811Z,99603.09
2022-10-05T00:18:39.066Z,99593.97
2022-10-05T00:24:56.333Z,99589.97
2022-10-05T00:31:00.918Z,99589.03
2022-10-05T00:37:05.532Z,99602.19
2022-10-05T00:43:55.635Z,99618.91
2022-10-05T00:50:50.101Z,99612.97
2022-10-05T00:57:08.065Z,99588.28
2022-10-05T01:03:30.290Z,99579.53
2022-10-05T01:09:59.477Z,99570.31
2022-10-05T01:16:14.415Z,99582.06
2022-10-05T01:22:42.366Z,99573.44
2022-10-05T01:29:17.579Z,99557.56
2022-10-05T01:36:21.185Z,99546.50
2022-10-05T01:43:15.482Z,99553.03
2022-10-05T01:49:39.038Z,99567.00
2022-10-05T01:56:04.866Z,99558.44
2022-10-05T02:02:12.917Z,99557.88
2022-10-05T02:08:30.075Z,99557.84
2022-10-05T02:14:49.576Z,99560.78
2022-10-05T02:20:55.379Z,99571.13
2022-10-05T02:26:58.705Z,99565.25
2022-10-05T02:33:10.387Z,99554.34
2022-10-05T02:39:49.350Z,99534.72
2022-10-05T02:46:20.547Z,99517.16
2022-10-05T02:52:49.141Z,99489.81
2022-10-05T02:59:26.949Z,99480.19
2022-10-05T03:05:52.527Z,99494.25
2022-10-05T03:12:09.224Z,99492.28
2022-10-05T03:18:24.615Z,99500.41
2022-10-05T03:25:09.633Z,99491.66
2022-10-05T03:31:42.190Z,99499.59
2022-10-05T03:38:31.788Z,99477.06
2022-10-05T03:44:59.926Z,99472.03
2022-10-05T03:51:15.390Z,99462.97
2022-10-05T03:57:36.869Z,99481.72
2022-10-05T04:03:54.965Z,99487.41
2022-10-05T04:10:00.007Z,99468.91
2022-10-05T04:16:14.144Z,99469.66
2022-10-05T04:22:29.939Z,99461.56
2022-10-05T04:28:46.392Z,99451.09
2022-10-05T04:35:09.653Z,99450.78
2022-10-05T04:42:16.270Z,99438.16
2022-10-05T04:48:54.562Z,99435.63
2022-10-05T04:55:19.119Z,99436.97
2022-10-05T05:02:12.384Z,99433.94
2022-10-05T05:08:58.965Z,99444.88
2022-10-05T05:15:35.735Z,99457.03
2022-10-05T05:22:22.321Z,99440.00
2022-10-05T05:28:51.009Z,99450.22
2022-10-05T05:35:25.501Z,99446.66
2022-10-05T05:41:39.233Z,99443.97
2022-10-05T05:47:52.027Z,99439.13
2022-10-05T05:54:21.821Z,99450.16
2022-10-05T06:01:01.539Z,99444.88
2022-10-05T06:07:06.135Z,99440.72
2022-10-05T06:13:43.256Z,99431.91
2022-10-05T06:19:47.730Z,99445.75
2022-10-05T06:26:21.671Z,99445.34
2022-10-05T06:33:04.695Z,99457.72
2022-10-05T06:39:43.517Z,99451.22
2022-10-05T06:46:20.700Z,99459.63
2022-10-05T06:52:35.876Z,99465.06
2022-10-05T06:59:04.495Z,99457.69
2022-10-05T07:05:30.670Z,99464.97
2022-10-05T07:12:18.581Z,99464.16
2022-10-05T07:18:37.363Z,99470.75
2022-10-05T07:25:00.603Z,99465.56
2022-10-05T07:31:40.055Z,99463.56
2022-10-05T07:37:55.359Z,99461.72
2022-10-05T07:44:29.470Z,99469.84
2022-10-05T07:51:02.957Z,99475.88
2022-10-05T07:57:24.125Z,99475.56
2022-10-05T08:04:19.738Z,99495.13
2022-10-05T08:10:59.848Z,99493.91
2022-10-05T08:17:25.400Z,99496.00
2022-10-05T08:23:47.087Z,99497.91
2022-10-05T08:30:06.472Z,99489.41
2022-10-05T08:36:19.752Z,99484.84
2022-10-05T08:42:54.282Z,99494.03
2022-10-05T08:49:20.224Z,99487.06
2022-10-05T08:56:03.002Z,99494.50
2022-10-05T09:02:32.645Z,99498.69
2022-10-05T09:08:47.675Z,99498.09
2022-10-05T09:15:51.972Z,99494.94
2022-10-05T09:22:21.438Z,99503.66
2022-10-05T09:28:45.602Z,99506.13
2022-10-05T09:35:15.877Z,99506.78
2022-10-05T09:41:27.670Z,99519.19
2022-10-05T09:48:49.276Z,99512.06
2022-10-05T09:55:09.935Z,99511.16
2022-10-05T10:01:40.527Z,99514.19
2022-10-05T10:08:23.335Z,99521.91
2022-10-05T10:15:03.214Z,99514.22
2022-10-05T10:21:34.288Z,99507.59
2022-10-05T10:28:29.515Z,99496.72
2022-10-05T10:35:06.556Z,99488.75
2022-10-05T10:41:37.168Z,99484.75
2022-10-05T10:48:05.013Z,99484.13
2022-10-05T10:54:34.716Z,99482.25
2022-10-05T11:01:01.108Z,99473.09
2022-10-05T11:07:45.132Z,99471.63
2022-10-05T11:14:24.632Z,99457.50
2022-10-05T11:21:17.225Z,99463.84
2022-10-05T11:27:58.134Z,99463.38
2022-10-05T11:34:49.116Z,99448.28
2022-10-05T11:41:19.799Z,99439.81
2022-10-05T11:47:40.392Z,99431.84
2022-10-05T11:54:03.188Z,99417.34
2022-10-05T12:00:21.875Z,99402.38
2022-10-05T12:06:39.318Z,99406.84
2022-10-05T12:13:07.707Z,99386.09
2022-10-05T12:19:29.785Z,99383.84
2022-10-05T12:25:43.576Z,99389.06
2022-10-05T12:32:07.691Z,99373.88
2022-10-05T12:38:56.708Z,99372.28
2022-10-05T12:45:04.907Z,99354.66
2022-10-05T12:51:10.941Z,99358.94
2022-10-05T12:57:38.196Z,99346.47
2022-10-05T13:04:15.153Z,99348.00
2022-10-05T13:10:52.798Z,99336.56
2022-10-05T13:17:30.965Z,99342.19
2022-10-05T13:23:59.572Z,99343.59
2022-10-05T13:30:20.600Z,99338.31
2022-10-05T13:37:12.283Z,99331.88
2022-10-05T13:43:45.099Z,99315.25
2022-10-05T13:50:21.614Z,99306.47
2022-10-05T13:56:42.562Z,99307.59
2022-10-05T14:02:56.678Z,99297.41
2022-10-05T14:09:01.095Z,99300.19
2022-10-05T14:15:20.143Z,99296.34
2022-10-05T14:28:30.593Z,99253.66
2022-10-05T14:34:45.538Z,99254.63
2022-10-05T14:41:08.461Z,99252.09
2022-10-05T14:47:45.519Z,99249.25
2022-10-05T14:54:02.538Z,99234.94
2022-10-05T15:00:18.652Z,99233.06
2022-10-05T15:07:16.605Z,99215.38
2022-10-05T15:13:23.692Z,99210.25
2022-10-05T15:20:35.106Z,99204.53
2022-10-05T15:27:03.569Z,99197.75
2022-10-05T15:33:52.450Z,99203.84
2022-10-05T15:46:56.849Z,99187.09
2022-10-05T15:53:26.143Z,99186.91
2022-10-05T15:59:53.645Z,99202.97
2022-10-05T16:06:31.840Z,99194.22
2022-10-05T16:13:04.486Z,99200.13
2022-10-05T16:19:19.963Z,99196.69
2022-10-05T16:25:40.068Z,99185.81
2022-10-05T16:32:39.399Z,99189.38
2022-10-05T16:39:36.879Z,99198.50
2022-10-05T16:45:45.459Z,99203.94
2022-10-05T16:51:47.798Z,99221.91
2022-10-05T16:57:55.667Z,99227.75
2022-10-05T17:04:31.882Z,99243.75
2022-10-05T17:11:17.199Z,99269.81
2022-10-05T17:17:43.609Z,99267.78
2022-10-05T17:24:11.865Z,99279.28
2022-10-05T17:30:27.609Z,99284.41
2022-10-05T17:36:44.202Z,99286.88
2022-10-05T17:42:48.470Z,99305.81
2022-10-05T17:48:50.274Z,99308.06
2022-10-05T17:55:19.828Z,99315.75
2022-10-05T18:07:40.313Z,99330.41
2022-10-05T18:13:50.292Z,99334.66
2022-10-05T18:20:15.208Z,99340.81
2022-10-05T18:26:29.982Z,99346.22
2022-10-05T18:32:43.617Z,99344.66
2022-10-05T18:39:33.145Z,99345.38
2022-10-05T18:46:17.951Z,99351.03
2022-10-05T18:52:33.437Z,99350.19
2022-10-05T18:59:28.976Z,99346.44
2022-10-05T19:05:49.558Z,99344.50
2022-10-05T19:12:31.658Z,99353.09
2022-10-05T19:19:01.250Z,99356.03
2022-10-05T19:25:52.710Z,99357.22
2022-10-05T19:32:18.570Z,99367.22
2022-10-05T19:38:34.593Z,99380.28
2022-10-05T19:45:29.516Z,99380.84
2022-10-05T19:51:52.835Z,99377.09
2022-10-05T19:58:01.252Z,99382.88
2022-10-05T20:04:05.166Z,99393.56
2022-10-05T20:10:30.710Z,99407.69
2022-10-05T20:16:52.884Z,99403.28
2022-10-05T20:23:21.573Z,99414.63
2022-10-05T20:29:23.527Z,99427.22
2022-10-05T20:35:30.682Z,99429.94
2022-10-05T20:41:32.720Z,99449.16
2022-10-05T20:47:37.543Z,99457.97
2022-10-05T20:53:39.428Z,99460.22
2022-10-05T20:59:41.270Z,99454.84
2022-10-05T21:05:43.158Z,99454.00
2022-10-05T21:11:47.191Z,99464.34
2022-10-05T21:17:50.803Z,99465.41
2022-10-05T21:23:52.892Z,99463.16
2022-10-05T21:29:54.760Z,99470.34
2022-10-05T21:35:56.582Z,99484.16
2022-10-05T21:41:58.613Z,99486.00
2022-10-05T21:48:15.336Z,99480.94
2022-10-05T22:07:19.812Z,99510.56
2022-10-05T22:13:26.412Z,99504.44
2022-10-05T22:19:28.397Z,99507.34
2022-10-05T22:25:33.866Z,99500.75
2022-10-05T22:31:36.147Z,99500.25
2022-10-05T22:37:38.243Z,99504.91
2022-10-05T22:43:40.198Z,99508.84
2022-10-05T22:49:42.066Z,99520.44
2022-10-05T22:55:43.995Z,99515.09
2022-10-05T23:01:46.201Z,99529.88
2022-10-05T23:07:48.291Z,99538.03
2022-10-05T23:13:59.167Z,99535.03
2022-10-05T23:20:01.738Z,99536.81
2022-10-05T23:26:06.710Z,99531.84
2022-10-05T23:32:08.915Z,99533.00
2022-10-05T23:38:22.547Z,99554.09
2022-10-05T23:44:24.504Z,99553.41
2022-10-05T23:50:27.506Z,99558.34
2022-10-05T23:56:29.508Z,99564.72
